EST,Max TemperatureF,Mean TemperatureF,Min TemperatureF,Max Dew PointF,MeanDew PointF,Min DewpointF,Max Humidity, Mean Humidity, Min Humidity, Max Sea Level PressureIn, Mean Sea Level PressureIn, Min Sea Level PressureIn, Max VisibilityMiles, Mean VisibilityMiles, Min VisibilityMiles, Max Wind SpeedMPH, Mean Wind SpeedMPH, Max Gust SpeedMPH,PrecipitationIn, CloudCover, Events, WindDirDegrees
2012-12-1,50,40,29,39,34,28,100,89,63,30.46,30.41,30.36,10,6,2,6,1,,0.00,1,,35
2012-12-2,58,44,30,51,35,30,100,96,62,30.42,30.36,30.17,10,3,0,7,0,,0.00,2,Fog-Rain,147
2012-12-3,70,56,41,52,45,41,100,95,50,30.28,30.20,30.17,10,3,1,6,0,,0.00,1,,297
2012-12-4,72,60,47,53,50,47,99,72,42,30.26,30.17,30.04,10,10,8,8,2,,0.00,4,,162
2012-12-5,61,51,39,48,36,21,82,51,28,30.32,30.15,30.01,10,10,10,18,7,28,0.00,3,Rain,317
2012-12-6,45,37,29,26,21,19,83,57,36,30.41,30.34,30.27,10,10,10,6,2,,0.00,0,,350
2012-12-7,50,42,34,48,41,29,100,84,63,30.26,30.10,29.99,10,9,4,6,3,,0.01,8,Rain,140
2012-12-8,55,50,44,52,47,44,100,99,87,30.03,29.96,29.92,10,3,0,8,1,,0.00,4,Fog,219
2012-12-9,53,50,46,52,49,46,100,99,82,30.18,30.10,30.00,10,3,0,5,0,,0.03,8,Fog-Rain,353
2012-12-10,64,56,49,62,52,49,100,98,76,30.00,29.82,29.62,10,3,0,8,1,,0.00,7,Fog-Rain,160
2012-12-11,60,50,40,59,37,27,94,69,46,30.25,29.92,29.66,10,10,7,21,10,31,0.10,7,Rain,324
2012-12-12,46,40,33,30,27,26,88,58,45,30.45,30.39,30.25,10,10,10,8,4,,0.00,1,,329
2012-12-13,49,38,26,27,23,19,89,57,30,30.48,30.42,30.38,10,10,10,6,2,,0.00,0,,341
2012-12-14,52,38,23,30,27,22,96,74,41,30.37,30.31,30.24,10,10,10,7,1,,0.00,0,,172
2012-12-15,52,40,28,37,31,28,96,72,40,30.32,30.23,30.15,10,10,10,6,1,,0.00,3,Rain,130
2012-12-16,49,46,42,48,44,37,100,97,76,30.17,30.02,29.86,10,6,1,8,1,,0.03,6,Rain,141
2012-12-17,54,50,46,54,49,46,100,100,94,29.87,29.77,29.57,10,4,0,8,1,,0.03,8,Fog-Rain,136
2012-12-18,60,48,35,55,45,30,100,93,41,29.84,29.60,29.56,10,4,0,20,3,28,0.00,4,Fog-Rain,255
2012-12-19,54,41,28,36,32,28,99,74,48,30.20,29.99,29.83,10,10,10,9,2,16,0.00,2,,299
2012-12-20,53,43,33,52,40,31,100,85,53,30.22,29.85,29.44,10,8,3,15,4,23,0.50,5,Rain,117
2012-12-21,57,48,38,56,43,19,100,77,42,29.60,29.37,29.27,10,8,1,21,11,29,0.37,7,Rain,252
2012-12-22,44,38,32,22,19,18,59,45,36,30.07,29.86,29.62,10,10,10,26,16,38,0.09,4,,295
2012-12-23,46,34,22,25,21,16,89,63,30,30.10,30.02,29.93,10,10,10,8,2,,0.00,0,,286
2012-12-24,39,32,24,38,35,22,100,95,65,30.11,29.96,29.92,10,4,1,5,1,,0.05,7,Rain,125
2012-12-25,50,42,33,39,36,30,100,88,49,30.27,30.04,29.93,10,5,0,9,2,,0.00,6,Fog,312
2012-12-26,41,36,32,39,33,26,100,91,67,30.27,29.82,29.42,10,4,1,14,5,23,1.35,8,Rain-Snow,360
2012-12-27,42,38,35,34,29,23,93,73,52,30.05,29.67,29.43,10,10,6,26,17,44,0.00,7,Rain,296
2012-12-28,43,36,28,29,26,25,89,69,49,30.18,30.10,30.04,10,10,10,12,4,,0.00,3,,301
2012-12-29,42,37,32,37,32,27,100,88,60,30.04,29.75,29.61,10,6,1,20,2,31,0.15,7,Rain-Snow,287
2012-12-30,41,34,27,26,20,18,72,52,39,30.37,30.17,29.87,10,10,10,29,15,41,0.01,3,,301
2012-12-31,39,31,23,29,23,19,89,70,49,30.35,30.20,30.03,10,10,10,5,2,,0.00,2,,214